Time,TemperatureF,DewpointF,PressureIn,WindDirection,WindDirectionDegrees,WindSpeedMPH,WindSpeedGustMPH,Humidity,HourlyPrecipIn,Conditions,Clouds,dailyrainin,SoftwareType,DateUTC
2013-07-05 12:33:00,91.0,78.0,30.09,SE,139,3.0,-999.0,65,-99.99,,,-99.99,,2013-07-05 16:33:00,
2013-07-05 12:44:00,91.0,78.0,30.09,SE,139,3.0,-999.0,65,-99.99,,,-99.99,,2013-07-05 16:44:00,
2013-07-05 12:53:00,92.0,78.0,30.09,ESE,117,1.0,-999.0,63,-99.99,,,-99.99,,2013-07-05 16:53:00,
2013-07-05 13:02:00,92.0,78.0,30.09,ESE,117,1.0,-999.0,63,-99.99,,,-99.99,,2013-07-05 17:02:00,
2013-07-05 13:12:00,92.0,78.0,30.09,ESE,117,1.0,-999.0,63,-99.99,,,-99.99,,2013-07-05 17:12:00,
2013-07-05 13:33:00,90.0,77.0,30.09,SSE,150,3.0,-999.0,66,-99.99,,,-99.99,,2013-07-05 17:33:00,
2013-07-05 13:43:00,90.0,77.0,30.09,SSE,150,3.0,-999.0,66,-99.99,,,-99.99,,2013-07-05 17:43:00,
2013-07-05 13:53:00,79.0,74.0,30.10,SE,142,4.0,-999.0,84,-99.99,,,-99.99,,2013-07-05 17:53:00,
2013-07-05 14:02:00,79.0,74.0,30.10,SE,142,4.0,-999.0,84,-99.99,,,-99.99,,2013-07-05 18:02:00,
2013-07-05 14:11:00,79.0,74.0,30.10,SE,142,4.0,-999.0,84,-99.99,,,-99.99,,2013-07-05 18:11:00,
2013-07-05 14:22:00,79.0,75.0,30.10,South,181,2.0,-999.0,89,-99.99,,,-99.99,,2013-07-05 18:22:00,
2013-07-05 14:33:00,79.0,75.0,30.10,South,181,2.0,-999.0,89,-99.99,,,-99.99,,2013-07-05 18:33:00,
2013-07-05 14:43:00,79.0,75.0,30.10,South,181,2.0,-999.0,89,-99.99,,,-99.99,,2013-07-05 18:43:00,
2013-07-05 14:53:00,77.0,74.0,30.11,South,182,0.0,-999.0,91,-99.99,,,-99.99,,2013-07-05 18:53:00,
2013-07-05 15:01:00,77.0,74.0,30.11,South,182,0.0,-999.0,91,-99.99,,,-99.99,,2013-07-05 19:01:00,
2013-07-05 15:12:00,77.0,74.0,30.11,South,182,0.0,-999.0,91,-99.99,,,-99.99,,2013-07-05 19:12:00,
2013-07-05 15:22:00,77.0,74.0,30.09,South,182,1.0,-999.0,91,-99.99,,,-99.99,,2013-07-05 19:22:00,
2013-07-05 15:34:00,77.0,74.0,30.09,South,182,1.0,-999.0,91,-99.99,,,-99.99,,2013-07-05 19:34:00,
2013-07-05 15:43:00,77.0,74.0,30.09,South,182,1.0,-999.0,91,-99.99,,,-99.99,,2013-07-05 19:43:00,
2013-07-05 15:53:00,77.0,74.0,30.07,SE,137,1.0,-999.0,91,-99.99,,,-99.99,,2013-07-05 19:53:00,
2013-07-05 16:02:00,77.0,74.0,30.07,SE,137,1.0,-999.0,91,-99.99,,,-99.99,,2013-07-05 20:02:00,
2013-07-05 16:11:00,77.0,74.0,30.07,SE,137,1.0,-999.0,91,-99.99,,,-99.99,,2013-07-05 20:11:00,
2013-07-05 16:22:00,77.0,73.0,30.06,South,179,0.0,-999.0,88,-99.99,,,-99.99,,2013-07-05 20:22:00,
2013-07-05 16:33:00,77.0,73.0,30.06,South,179,0.0,-999.0,88,-99.99,,,-99.99,,2013-07-05 20:33:00,
2013-07-05 16:43:00,77.0,73.0,30.06,South,179,0.0,-999.0,88,-99.99,,,-99.99,,2013-07-05 20:43:00,
2013-07-05 16:53:00,78.0,73.0,30.06,South,184,1.0,-999.0,86,-99.99,,,-99.99,,2013-07-05 20:53:00,
2013-07-05 17:01:00,78.0,73.0,30.06,South,184,1.0,-999.0,86,-99.99,,,-99.99,,2013-07-05 21:01:00,
2013-07-05 17:12:00,78.0,73.0,30.06,South,184,1.0,-999.0,86,-99.99,,,-99.99,,2013-07-05 21:12:00,
2013-07-05 17:22:00,79.0,75.0,30.05,SE,134,0.0,-999.0,87,-99.99,,,-99.99,,2013-07-05 21:22:00,
2013-07-05 17:34:00,79.0,75.0,30.05,SE,134,0.0,-999.0,87,-99.99,,,-99.99,,2013-07-05 21:34:00,
2013-07-05 17:43:00,79.0,75.0,30.05,SE,134,0.0,-999.0,87,-99.99,,,-99.99,,2013-07-05 21:43:00,
2013-07-05 17:53:00,83.0,78.0,30.04,South,186,2.0,-999.0,84,-99.99,,,-99.99,,2013-07-05 21:53:00,
2013-07-05 18:02:00,83.0,78.0,30.04,South,186,2.0,-999.0,84,-99.99,,,-99.99,,2013-07-05 22:02:00,
2013-07-05 18:11:00,83.0,78.0,30.04,South,186,2.0,-999.0,84,-99.99,,,-99.99,,2013-07-05 22:11:00,
2013-07-05 18:22:00,85.0,78.0,30.04,SSW,196,0.0,-999.0,81,-99.99,,,-99.99,,2013-07-05 22:22:00,
2013-07-05 18:34:00,85.0,78.0,30.04,SSW,196,0.0,-999.0,81,-99.99,,,-99.99,,2013-07-05 22:34:00,
2013-07-05 18:43:00,85.0,78.0,30.04,SSW,196,0.0,-999.0,81,-99.99,,,-99.99,,2013-07-05 22:43:00,
2013-07-05 18:53:00,86.0,78.0,30.05,South,176,2.0,-999.0,78,-99.99,,,-99.99,,2013-07-05 22:53:00,
2013-07-05 19:02:00,86.0,78.0,30.05,South,176,2.0,-999.0,78,-99.99,,,-99.99,,2013-07-05 23:02:00,
2013-07-05 19:11:00,86.0,78.0,30.05,South,176,2.0,-999.0,78,-99.99,,,-99.99,,2013-07-05 23:11:00,
2013-07-05 19:23:00,78.0,74.0,30.06,East,91,0.0,-999.0,87,-99.99,,,-99.99,,2013-07-05 23:23:00,
2013-07-05 19:32:00,78.0,74.0,30.06,East,91,0.0,-999.0,87,-99.99,,,-99.99,,2013-07-05 23:32:00,
2013-07-05 19:43:00,78.0,74.0,30.06,East,91,0.0,-999.0,87,-99.99,,,-99.99,,2013-07-05 23:43:00,
2013-07-05 19:53:00,76.0,73.0,30.06,SSE,148,0.0,-999.0,90,-99.99,,,-99.99,,2013-07-05 23:53:00,
2013-07-05 20:01:00,76.0,73.0,30.06,SSE,148,0.0,-999.0,90,-99.99,,,-99.99,,2013-07-06 00:01:00,
2013-07-05 20:12:00,76.0,73.0,30.06,SSE,148,0.0,-999.0,90,-99.99,,,-99.99,,2013-07-06 00:12:00,
2013-07-05 20:22:00,76.0,73.0,30.07,SSE,148,0.0,-999.0,90,-99.99,,,-99.99,,2013-07-06 00:22:00,
2013-07-05 20:33:00,76.0,73.0,30.07,SSE,148,0.0,-999.0,90,-99.99,,,-99.99,,2013-07-06 00:33:00,
2013-07-05 20:43:00,76.0,73.0,30.07,SSE,148,0.0,-999.0,90,-99.99,,,-99.99,,2013-07-06 00:43:00,
2013-07-05 20:53:00,76.0,73.0,30.09,SSE,148,0.0,-999.0,91,-99.99,,,-99.99,,2013-07-06 00:53:00,
2013-07-05 21:02:00,76.0,73.0,30.09,SSE,148,0.0,-999.0,91,-99.99,,,-99.99,,2013-07-06 01:02:00,
2013-07-05 21:12:00,76.0,73.0,30.09,SSE,148,0.0,-999.0,91,-99.99,,,-99.99,,2013-07-06 01:12:00,
2013-07-05 21:22:00,76.0,73.0,30.09,SSE,148,0.0,-999.0,91,-99.99,,,-99.99,,2013-07-06 01:22:00,
2013-07-05 21:33:00,76.0,73.0,30.09,SSE,148,0.0,-999.0,91,-99.99,,,-99.99,,2013-07-06 01:33:00,
2013-07-05 21:43:00,76.0,73.0,30.09,SSE,148,0.0,-999.0,91,-99.99,,,-99.99,,2013-07-06 01:43:00,
2013-07-05 21:53:00,76.0,73.0,30.08,SSE,148,0.0,-999.0,91,-99.99,,,-99.99,,2013-07-06 01:53:00,
2013-07-05 22:02:00,76.0,73.0,30.08,SSE,148,0.0,-999.0,91,-99.99,,,-99.99,,2013-07-06 02:02:00,
2013-07-05 22:12:00,76.0,73.0,30.08,SSE,148,0.0,-999.0,91,-99.99,,,-99.99,,2013-07-06 02:12:00,
2013-07-05 22:22:00,76.0,74.0,30.09,SSE,148,0.0,-999.0,92,-99.99,,,-99.99,,2013-07-06 02:22:00,
2013-07-05 22:34:00,76.0,74.0,30.09,SSE,148,0.0,-999.0,92,-99.99,,,-99.99,,2013-07-06 02:34:00,
2013-07-05 22:43:00,76.0,74.0,30.09,SSE,148,0.0,-999.0,92,-99.99,,,-99.99,,2013-07-06 02:43:00,
2013-07-05 22:53:00,76.0,74.0,30.10,SSE,148,0.0,-999.0,92,-99.99,,,-99.99,,2013-07-06 02:53:00,
2013-07-05 23:02:00,76.0,74.0,30.10,SSE,148,0.0,-999.0,92,-99.99,,,-99.99,,2013-07-06 03:02:00,
2013-07-05 23:12:00,76.0,74.0,30.10,SSE,148,0.0,-999.0,92,-99.99,,,-99.99,,2013-07-06 03:12:00,
2013-07-05 23:22:00,76.0,74.0,30.10,ESE,123,0.0,-999.0,92,-99.99,,,-99.99,,2013-07-06 03:22:00,
2013-07-05 23:34:00,76.0,74.0,30.10,ESE,123,0.0,-999.0,92,-99.99,,,-99.99,,2013-07-06 03:34:00,
2013-07-05 23:43:00,76.0,74.0,30.10,ESE,123,0.0,-999.0,92,-99.99,,,-99.99,,2013-07-06 03:43:00,
2013-07-05 23:53:00,75.0,73.0,30.10,ESE,123,0.0,-999.0,92,-99.99,,,-99.99,,2013-07-06 03:53:00,